Time;durP1;ratioP1;P1;durP2;ratioP2;P2;SDS_P1;SDS_P2;PMS_P1;PMS_P2;Temp;Humidity;BMP_temperature;BMP_pressure;BME280_temperature;BME280_humidity;BME280_pressure;Samples;Min_cycle;Max_cycle;Signal;HPM_P1;HPM_P2
2022/03/08 10:30:13;;;;;;;7.03;4.40;;;;;;;9.87;25.86;100382.88;1087693;46;20038;-79
2022/03/08 22:30:47;;;;;;;7.90;4.70;;;;;;;4.80;35.82;100462.88;1089314;46;20034;-80
2022/03/08 22:31:48;;;;;;;8.25;4.57;;;;;;;4.82;35.36;100458.31;1088052;54;20047;-80
2022/03/08 22:32:52;;;;;;;8.30;4.63;;;;;;;4.86;35.74;100464.28;1088011;54;20038;-82
2022/03/08 22:33:54;;;;;;;7.80;4.40;;;;;;;4.90;35.56;100464.94;1088282;46;20015;-81
2022/03/08 22:34:58;;;;;;;7.80;4.68;;;;;;;4.93;35.75;100464.72;1088134;54;20034;-80
2022/03/08 22:36:07;;;;;;;8.70;5.13;;;;;;;4.95;35.76;100458.41;1088037;54;20062;-80
2022/03/08 22:37:12;;;;;;;8.77;4.60;;;;;;;5.00;35.78;100460.75;1087416;54;20042;-80
2022/03/08 22:38:13;;;;;;;8.05;4.75;;;;;;;5.02;35.53;100463.28;1087417;54;20117;-80
2022/03/08 22:39:18;;;;;;;6.88;4.20;;;;;;;5.05;35.59;100463.94;1089751;39;20743;-81
2022/03/08 22:40:19;;;;;;;7.90;4.57;;;;;;;5.05;35.62;100469.25;1087702;54;20103;-79
2022/03/08 22:41:24;;;;;;;7.65;5.25;;;;;;;5.08;35.60;100460.22;1091786;39;20275;-80
2022/03/08 22:42:29;;;;;;;7.65;4.45;;;;;;;5.13;35.79;100452.84;1087872;54;20058;-79
2022/03/08 22:43:32;;;;;;;8.13;4.43;;;;;;;5.13;35.65;100466.09;1088011;54;20039;-80
2022/03/08 22:44:36;;;;;;;7.05;4.35;;;;;;;5.07;35.81;100464.69;1087731;54;20042;-81
2022/03/08 22:45:41;;;;;;;8.25;4.93;;;;;;;5.03;35.80;100468.47;1088344;46;20037;-80
2022/03/08 22:46:48;;;;;;;10.02;5.22;;;;;;;5.01;36.19;100465.06;1091913;39;20492;-81
2022/03/08 22:47:50;;;;;;;7.32;4.55;;;;;;;4.93;36.23;100472.66;1088678;46;20042;-80
2022/03/08 22:48:54;;;;;;;8.70;5.68;;;;;;;4.86;36.42;100479.31;1087726;54;20042;-79
2022/03/08 22:52:29;;;;;;;10.57;6.47;;;;;;;4.86;36.65;100484.59;1087717;54;20030;-80
2022/03/08 22:53:33;;;;;;;12.80;6.65;;;;;;;4.77;37.13;100476.28;1087706;54;20049;-81
2022/03/08 22:54:38;;;;;;;9.25;6.50;;;;;;;4.66;37.18;100476.13;1088626;46;20046;-81
2022/03/08 22:55:39;;;;;;;10.57;6.85;;;;;;;4.58;37.40;100484.53;1087916;54;20126;-81
2022/03/08 22:56:43;;;;;;;13.30;8.07;;;;;;;4.49;37.69;100491.25;1087795;54;20118;-79
2022/03/08 22:57:45;;;;;;;10.05;6.53;;;;;;;4.47;37.84;100481.72;1087901;54;20047;-82
2022/03/08 22:58:49;;;;;;;10.45;6.53;;;;;;;4.52;37.57;100485.78;1087797;54;20037;-81
2022/03/08 22:59:51;;;;;;;9.25;6.45;;;;;;;4.42;38.06;100492.59;1087871;54;21019;-82
2022/03/08 23:00:55;;;;;;;13.27;7.15;;;;;;;4.39;37.89;100498.06;1087935;54;20034;-81
2022/03/08 23:01:59;;;;;;;13.10;7.38;;;;;;;4.38;37.76;100488.41;1087982;47;20039;-81
2022/03/08 23:03:04;;;;;;;12.38;7.35;;;;;;;4.33;38.04;100493.16;1087818;54;20042;-82
2022/03/08 23:04:06;;;;;;;10.77;6.45;;;;;;;4.34;38.34;100492.22;1087892;54;20062;-81
2022/03/08 23:05:12;;;;;;;13.60;7.68;;;;;;;4.28;38.01;100495.22;1088166;46;20042;-81
2022/03/08 23:06:13;;;;;;;12.02;6.38;;;;;;;4.28;37.95;100503.16;1088236;54;20046;-81
2022/03/08 23:07:18;;;;;;;11.13;6.95;;;;;;;4.25;38.19;100495.44;1088154;54;20038;-81
2022/03/08 23:08:20;;;;;;;17.70;10.43;;;;;;;4.17;38.53;100499.38;1090453;46;20039;-82
2022/03/08 23:09:24;;;;;;;19.48;10.65;;;;;;;4.14;38.44;100496.06;1087683;54;20042;-80
2022/03/08 23:10:26;;;;;;;14.48;9.98;;;;;;;4.17;38.22;100499.38;1087238;54;20035;-79
2022/03/08 23:11:30;;;;;;;15.68;8.90;;;;;;;4.10;38.39;100494.56;1087234;54;20039;-80
2022/03/08 23:12:32;;;;;;;11.73;7.88;;;;;;;4.08;38.32;100496.44;1088772;46;20584;-80
2022/03/08 23:13:37;;;;;;;10.00;7.18;;;;;;;4.08;38.37;100497.28;1087177;54;20039;-80
2022/03/08 23:14:38;;;;;;;14.23;7.22;;;;;;;4.03;38.48;100499.34;1087909;39;20524;-80
2022/03/08 23:15:42;;;;;;;11.23;6.68;;;;;;;4.02;38.68;100498.47;1087072;54;20034;-80
2022/03/08 23:16:47;;;;;;;10.25;6.32;;;;;;;4.03;38.61;100502.00;1087275;54;20533;-81
2022/03/08 23:17:51;;;;;;;9.75;6.10;;;;;;;4.05;38.58;100508.91;1087949;46;20015;-80
2022/03/08 23:18:56;;;;;;;10.65;6.40;;;;;;;4.06;38.56;100509.78;1087375;54;20636;-80
2022/03/08 23:19:57;;;;;;;10.23;6.63;;;;;;;4.00;38.96;100499.53;1087224;54;20038;-81
2022/03/08 23:21:02;;;;;;;11.25;6.35;;;;;;;4.04;38.91;100496.59;1087216;54;20034;-81
2022/03/08 23:22:03;;;;;;;11.90;7.15;;;;;;;4.10;38.68;100505.97;1087706;39;20342;-79
2022/03/08 23:23:07;;;;;;;9.73;6.03;;;;;;;4.16;38.62;100505.59;1087178;54;20053;-80
2022/03/08 23:24:10;;;;;;;10.52;5.95;;;;;;;4.19;38.64;100500.13;1089260;39;20674;-80
2022/03/08 23:25:15;;;;;;;9.55;5.82;;;;;;;4.17;38.51;100501.16;1087339;54;20605;-80
2022/03/08 23:26:17;;;;;;;10.70;6.70;;;;;;;3.99;39.31;100505.75;1087387;54;20042;-80
2022/03/08 23:27:21;;;;;;;9.52;6.70;;;;;;;4.04;39.33;100511.66;1088615;46;20034;-80
2022/03/08 23:28:22;;;;;;;10.85;6.35;;;;;;;4.04;39.18;100503.72;1087172;54;20049;-80
2022/03/08 23:29:27;;;;;;;8.90;5.60;;;;;;;4.12;39.24;100505.88;1087327;54;20061;-80
2022/03/08 23:30:31;;;;;;;10.60;6.03;;;;;;;4.03;39.54;100504.66;1087502;54;20043;-80
2022/03/08 23:31:33;;;;;;;13.20;6.90;;;;;;;4.00;39.59;100504.81;1086698;54;20038;-80
2022/03/08 23:32:37;;;;;;;10.82;5.60;;;;;;;4.04;39.49;100498.41;1087498;54;20626;-79
2022/03/08 23:33:42;;;;;;;9.00;5.90;;;;;;;4.04;39.55;100501.06;1087366;54;20057;-79
2022/03/08 23:34:46;;;;;;;9.35;6.03;;;;;;;3.98;39.44;100509.34;1087269;54;20562;-81
2022/03/08 23:35:48;;;;;;;10.55;5.70;;;;;;;3.97;39.58;100505.03;1087495;54;20027;-80
2022/03/08 23:36:52;;;;;;;11.75;6.93;;;;;;;3.91;39.85;100508.88;1087418;54;20042;-80
2022/03/08 23:37:56;;;;;;;11.13;7.10;;;;;;;3.84;40.05;100510.16;1086917;54;20046;-79
2022/03/08 23:39:01;;;;;;;11.95;6.95;;;;;;;3.74;40.10;100515.16;1087008;54;20039;-80
2022/03/08 23:40:03;;;;;;;12.38;7.75;;;;;;;3.72;40.50;100512.59;1087505;54;20058;-80
2022/03/08 23:41:07;;;;;;;10.68;6.53;;;;;;;3.74;40.34;100509.84;1087393;54;20135;-81
2022/03/08 23:42:09;;;;;;;13.70;7.13;;;;;;;3.72;40.64;100517.03;1087520;54;20046;-81
2022/03/08 23:43:14;;;;;;;12.30;7.50;;;;;;;3.66;40.92;100512.09;1087683;54;20034;-80
2022/03/08 23:44:16;;;;;;;10.95;6.78;;;;;;;3.67;40.72;100514.66;1087608;54;20030;-81
2022/03/08 23:45:20;;;;;;;12.52;7.32;;;;;;;3.65;40.83;100518.31;1087542;54;20026;-82
2022/03/08 23:46:21;;;;;;;13.52;7.05;;;;;;;3.56;41.22;100522.34;1088207;54;20046;-80
2022/03/08 23:47:26;;;;;;;11.48;6.90;;;;;;;3.56;40.99;100522.34;1087756;54;20077;-82
2022/03/08 23:48:27;;;;;;;13.25;6.95;;;;;;;3.57;41.21;100521.41;1089087;46;20043;-78
2022/03/08 23:49:34;;;;;;;14.52;7.45;;;;;;;3.58;41.11;100525.75;1087441;54;20048;-77
2022/03/08 23:50:36;;;;;;;10.20;6.47;;;;;;;3.61;41.22;100524.72;1087338;54;20030;-78
2022/03/08 23:51:40;;;;;;;15.40;7.18;;;;;;;3.55;41.30;100528.56;1087456;54;20034;-79
2022/03/08 23:52:41;;;;;;;14.15;7.88;;;;;;;3.49;41.61;100526.28;1087349;54;20579;-78
2022/03/08 23:53:46;;;;;;;13.73;7.45;;;;;;;3.49;41.74;100534.22;1087265;54;20026;-78
2022/03/08 23:54:47;;;;;;;12.65;7.13;;;;;;;3.49;41.52;100528.94;1086637;54;20042;-81
2022/03/08 23:55:51;;;;;;;10.68;6.65;;;;;;;3.47;41.60;100529.03;1087152;54;20045;-81
2022/03/08 23:56:54;;;;;;;12.45;6.63;;;;;;;3.48;41.52;100525.44;1087425;54;20069;-79
2022/03/08 23:57:58;;;;;;;10.73;6.57;;;;;;;3.37;42.07;100527.84;1087211;54;20053;-81
2022/03/08 23:59:01;;;;;;;11.32;7.18;;;;;;;3.32;42.03;100519.28;1087282;54;20015;-78
